createdAt,value
2019-01-12T00:00:56.932Z,2.53
2019-01-12T00:03:25.311Z,3.80
2019-01-12T00:05:53.891Z,3.93
2019-01-12T00:08:22.430Z,2.93
2019-01-12T00:10:50.814Z,4.13
2019-01-12T00:13:19.433Z,3.57
2019-01-12T00:15:47.848Z,3.23
2019-01-12T00:18:16.248Z,3.73
2019-01-12T00:20:44.627Z,3.37
2019-01-12T00:23:13.097Z,3.90
2019-01-12T00:25:44.506Z,3.67
2019-01-12T00:28:12.935Z,3.37
2019-01-12T00:30:41.409Z,2.73
2019-01-12T00:33:09.950Z,3.63
2019-01-12T00:35:38.571Z,3.10
2019-01-12T00:38:07.045Z,3.33
2019-01-12T00:40:36.320Z,3.30
2019-01-12T00:43:07.043Z,3.60
2019-01-12T00:45:35.698Z,3.17
2019-01-12T00:48:04.366Z,3.57
2019-01-12T00:50:34.456Z,3.87
2019-01-12T00:53:08.590Z,3.43
2019-01-12T00:55:37.043Z,4.13
2019-01-12T00:58:06.576Z,4.10
2019-01-12T01:00:36.003Z,4.27
2019-01-12T01:03:04.952Z,4.30
2019-01-12T01:05:33.883Z,3.30
2019-01-12T01:08:02.753Z,3.93
2019-01-12T01:10:32.602Z,3.77
2019-01-12T01:13:02.601Z,3.43
2019-01-12T01:15:36.192Z,4.17
2019-01-12T01:18:04.678Z,3.40
2019-01-12T01:20:33.050Z,3.30
2019-01-12T01:23:01.696Z,3.10
2019-01-12T01:25:30.077Z,2.90
2019-01-12T01:27:58.519Z,3.63
2019-01-12T01:30:26.903Z,3.73
2019-01-12T01:32:55.291Z,3.90
2019-01-12T01:35:23.714Z,3.60
2019-01-12T01:37:52.102Z,3.33
2019-01-12T01:40:20.643Z,3.43
2019-01-12T01:42:49.059Z,5.07
2019-01-12T01:45:17.526Z,3.53
2019-01-12T01:47:45.924Z,3.83
2019-01-12T01:50:14.900Z,2.97
2019-01-12T01:52:43.774Z,3.97
2019-01-12T01:55:12.756Z,4.07
2019-01-12T01:57:41.151Z,3.40
2019-01-12T02:00:18.706Z,3.67
2019-01-12T02:02:47.179Z,3.17
2019-01-12T02:05:15.620Z,3.17
2019-01-12T02:07:43.995Z,3.53
2019-01-12T02:10:17.125Z,3.80
2019-01-12T02:12:45.499Z,2.43
2019-01-12T02:15:14.424Z,3.03
2019-01-12T02:17:42.800Z,3.27
2019-01-12T02:20:11.373Z,3.03
2019-01-12T02:22:39.729Z,2.70
2019-01-12T02:25:08.227Z,4.83
2019-01-12T02:27:36.721Z,2.90
2019-01-12T02:30:06.544Z,3.50
2019-01-12T02:32:35.019Z,3.00
2019-01-12T02:35:03.488Z,3.37
2019-01-12T02:37:31.862Z,2.93
2019-01-12T02:40:00.377Z,2.90
2019-01-12T02:42:28.792Z,2.37
2019-01-12T02:44:57.169Z,4.13
2019-01-12T02:47:25.641Z,3.47
2019-01-12T02:49:54.038Z,2.90
2019-01-12T02:52:22.441Z,2.60
2019-01-12T02:54:50.900Z,2.87
2019-01-12T02:57:19.279Z,2.60
2019-01-12T02:59:47.658Z,2.60
2019-01-12T03:02:16.240Z,2.90
2019-01-12T03:04:44.658Z,2.87
2019-01-12T03:07:13.061Z,2.87
2019-01-12T03:09:42.585Z,3.10
2019-01-12T03:12:11.097Z,2.77
2019-01-12T03:14:39.525Z,2.87
2019-01-12T03:17:07.899Z,3.33
2019-01-12T03:19:36.419Z,3.03
2019-01-12T03:22:04.792Z,3.67
2019-01-12T03:24:33.177Z,3.30
2019-01-12T03:27:01.571Z,2.47
2019-01-12T03:29:30.017Z,2.23
2019-01-12T03:31:58.419Z,3.13
2019-01-12T03:34:26.900Z,2.87
2019-01-12T03:36:55.359Z,2.87
2019-01-12T03:39:23.834Z,3.80
2019-01-12T03:41:52.252Z,2.97
2019-01-12T03:44:20.630Z,2.97
2019-01-12T03:46:49.098Z,2.70
2019-01-12T03:49:17.472Z,2.37
2019-01-12T03:51:45.859Z,2.53
2019-01-12T03:54:14.277Z,2.30
2019-01-12T03:56:42.668Z,2.77
2019-01-12T03:59:11.061Z,2.23
2019-01-12T04:01:39.507Z,2.73
2019-01-12T04:04:07.962Z,2.13
2019-01-12T04:06:36.362Z,1.50
2019-01-12T04:09:06.881Z,2.10
2019-01-12T04:11:35.281Z,2.17
2019-01-12T04:14:03.838Z,1.70
2019-01-12T04:16:32.239Z,1.57
2019-01-12T04:19:00.618Z,1.50
2019-01-12T04:21:28.987Z,1.70
2019-01-12T04:23:57.543Z,1.50
2019-01-12T04:26:25.911Z,1.23
2019-01-12T04:28:54.338Z,2.27
2019-01-12T04:31:22.735Z,1.60
2019-01-12T04:33:51.416Z,0.73
2019-01-12T04:36:19.834Z,1.80
2019-01-12T04:38:48.213Z,1.30
2019-01-12T04:41:16.563Z,1.20
2019-01-12T04:43:44.993Z,1.40
2019-01-12T04:46:13.398Z,1.40
2019-01-12T04:48:41.826Z,1.40
2019-01-12T04:51:10.210Z,1.20
2019-01-12T04:53:38.608Z,1.50
2019-01-12T04:56:06.986Z,1.20
2019-01-12T04:58:35.428Z,1.40
2019-01-12T05:01:03.898Z,0.90
2019-01-12T05:03:32.342Z,0.67
2019-01-12T05:06:00.706Z,0.67
2019-01-12T05:08:29.069Z,0.57
2019-01-12T05:10:57.461Z,0.60
2019-01-12T05:13:25.853Z,0.80
2019-01-12T05:15:54.277Z,1.10
2019-01-12T05:18:22.663Z,1.30
2019-01-12T05:20:51.035Z,1.53
2019-01-12T05:23:19.439Z,1.57
2019-01-12T05:25:49.185Z,1.03
2019-01-12T05:28:17.995Z,1.43
2019-01-12T05:30:46.400Z,1.40
2019-01-12T05:33:14.837Z,0.90
2019-01-12T05:35:43.247Z,1.37
2019-01-12T05:38:11.660Z,1.23
2019-01-12T05:40:40.120Z,1.10
2019-01-12T05:43:08.495Z,1.33
2019-01-12T05:45:36.964Z,1.27
2019-01-12T05:48:05.359Z,0.77
2019-01-12T05:50:33.710Z,1.20
2019-01-12T05:53:02.131Z,1.20
2019-01-12T05:55:30.605Z,1.03
2019-01-12T05:57:58.979Z,1.10
2019-01-12T06:00:27.445Z,0.97
2019-01-12T06:02:55.876Z,0.80
2019-01-12T06:05:24.241Z,1.00
2019-01-12T06:07:52.635Z,0.60
2019-01-12T06:10:22.787Z,0.80
2019-01-12T06:12:51.179Z,0.87
2019-01-12T06:15:19.596Z,0.70
2019-01-12T06:17:47.946Z,0.50
2019-01-12T06:20:16.426Z,0.80
2019-01-12T06:22:44.899Z,0.50
2019-01-12T06:25:13.368Z,0.90
2019-01-12T06:27:41.853Z,0.70
2019-01-12T06:30:12.067Z,1.03
2019-01-12T06:32:40.535Z,0.93
2019-01-12T06:35:08.986Z,0.70
2019-01-12T06:37:37.430Z,0.63
2019-01-12T06:40:06.818Z,1.30
2019-01-12T06:42:35.201Z,0.83
2019-01-12T06:45:03.693Z,0.63
2019-01-12T06:47:32.171Z,1.00
2019-01-12T06:50:00.567Z,0.80
2019-01-12T06:52:28.969Z,0.50
2019-01-12T06:54:57.388Z,0.80
2019-01-12T06:57:25.769Z,1.07
2019-01-12T06:59:54.197Z,0.90
2019-01-12T07:02:25.412Z,1.00
2019-01-12T07:04:53.882Z,1.30
2019-01-12T07:07:22.257Z,0.80
2019-01-12T07:09:50.649Z,0.90
2019-01-12T07:12:19.137Z,1.37
2019-01-12T07:14:47.497Z,0.60
2019-01-12T07:17:16.000Z,0.70
2019-01-12T07:19:44.431Z,0.67
2019-01-12T07:22:12.798Z,0.80
2019-01-12T07:24:41.245Z,0.80
2019-01-12T07:27:09.684Z,0.90
2019-01-12T07:29:38.183Z,0.80
2019-01-12T07:32:06.561Z,0.63
2019-01-12T07:34:34.921Z,0.70
2019-01-12T07:37:03.319Z,1.20
2019-01-12T07:39:34.597Z,1.03
2019-01-12T07:42:03.035Z,0.70
2019-01-12T07:44:31.397Z,1.40
2019-01-12T07:46:59.812Z,0.70
2019-01-12T07:49:28.279Z,0.60
2019-01-12T07:51:56.793Z,0.80
2019-01-12T07:54:25.409Z,1.10
2019-01-12T07:56:53.841Z,0.50
2019-01-12T07:59:22.226Z,0.60
2019-01-12T08:01:50.616Z,0.77
2019-01-12T08:04:18.979Z,0.90
2019-01-12T08:06:47.455Z,0.77
2019-01-12T08:09:15.850Z,0.70
2019-01-12T08:11:44.371Z,0.77
2019-01-12T08:14:12.856Z,0.80
2019-01-12T08:16:41.262Z,0.70
2019-01-12T08:19:28.851Z,0.63
2019-01-12T08:21:57.275Z,1.43
2019-01-12T08:24:28.761Z,0.60
2019-01-12T08:26:57.182Z,1.00
2019-01-12T08:29:25.715Z,0.93
2019-01-12T08:31:54.082Z,0.60
2019-01-12T08:34:22.471Z,1.03
2019-01-12T08:36:50.830Z,1.20
2019-01-12T08:39:19.298Z,1.30
2019-01-12T08:41:47.689Z,1.37
2019-01-12T08:44:16.066Z,1.40
2019-01-12T08:46:44.507Z,0.90
2019-01-12T08:49:12.896Z,0.87
2019-01-12T08:51:41.573Z,1.00
2019-01-12T08:54:09.983Z,1.37
2019-01-12T08:56:47.862Z,1.00
2019-01-12T08:59:16.245Z,1.43
2019-01-12T09:01:44.634Z,1.03
2019-01-12T09:04:13.103Z,0.93
2019-01-12T09:06:41.660Z,1.50
2019-01-12T09:09:10.128Z,1.10
2019-01-12T09:11:38.552Z,0.60
2019-01-12T09:14:07.142Z,0.90
2019-01-12T09:16:35.593Z,1.87
2019-01-12T09:19:04.060Z,1.53
2019-01-12T09:21:32.616Z,1.30
2019-01-12T09:24:01.017Z,1.43
2019-01-12T09:26:29.421Z,1.27
2019-01-12T09:28:57.915Z,1.73
2019-01-12T09:31:26.474Z,1.10
2019-01-12T09:33:54.946Z,1.27
2019-01-12T09:36:23.341Z,1.43
2019-01-12T09:38:51.776Z,1.50
2019-01-12T09:41:20.241Z,1.40
2019-01-12T09:43:48.646Z,1.50
2019-01-12T09:46:17.149Z,1.33
2019-01-12T09:48:45.557Z,1.77
2019-01-12T09:51:13.978Z,1.53
2019-01-12T09:53:42.371Z,1.10
2019-01-12T09:56:11.151Z,1.30
2019-01-12T09:58:39.531Z,1.40
2019-01-12T10:01:07.947Z,1.20
2019-01-12T10:03:38.036Z,1.50
2019-01-12T10:06:07.897Z,1.10
2019-01-12T10:08:36.350Z,1.30
2019-01-12T10:11:05.135Z,1.90
2019-01-12T10:13:33.537Z,1.70
2019-01-12T10:16:01.896Z,1.57
2019-01-12T10:18:30.441Z,2.00
2019-01-12T10:20:58.866Z,1.43
2019-01-12T10:23:28.839Z,1.23
2019-01-12T10:25:57.256Z,1.30
2019-01-12T10:28:25.649Z,1.30
2019-01-12T10:30:54.283Z,1.57
2019-01-12T10:33:22.686Z,1.53
2019-01-12T10:35:51.220Z,1.57
2019-01-12T10:38:20.058Z,1.80
2019-01-12T10:40:49.462Z,1.47
2019-01-12T10:43:18.439Z,1.60
2019-01-12T10:45:46.976Z,1.63
2019-01-12T10:48:15.593Z,1.97
2019-01-12T10:50:43.971Z,1.50
2019-01-12T10:53:12.530Z,1.77
2019-01-12T10:55:41.025Z,2.63
2019-01-12T10:58:10.002Z,1.80
2019-01-12T11:00:39.169Z,2.23
2019-01-12T11:03:08.099Z,2.70
2019-01-12T11:05:36.583Z,2.23
2019-01-12T11:08:09.612Z,2.33
2019-01-12T11:10:38.252Z,2.13
2019-01-12T11:13:06.763Z,1.80
2019-01-12T11:15:35.353Z,1.67
2019-01-12T11:18:05.109Z,2.27
2019-01-12T11:20:33.576Z,1.60
2019-01-12T11:23:02.149Z,3.10
2019-01-12T11:25:30.523Z,2.70
2019-01-12T11:27:59.732Z,2.77
2019-01-12T11:30:28.100Z,2.50
2019-01-12T11:32:56.489Z,2.23
2019-01-12T11:35:24.879Z,2.90
2019-01-12T11:37:53.370Z,2.83
2019-01-12T11:40:21.902Z,2.53
2019-01-12T11:42:50.982Z,2.87
2019-01-12T11:45:19.636Z,2.60
2019-01-12T11:47:48.208Z,2.30
2019-01-12T11:50:17.109Z,2.43
2019-01-12T11:52:46.008Z,2.23
2019-01-12T11:55:14.785Z,2.93
2019-01-12T11:57:43.276Z,2.67
2019-01-12T12:00:16.585Z,2.97
2019-01-12T12:02:45.037Z,3.37
2019-01-12T12:05:13.542Z,3.23
2019-01-12T12:07:41.989Z,4.30
2019-01-12T12:10:11.004Z,4.10
2019-01-12T12:12:39.475Z,3.03
2019-01-12T12:15:08.757Z,2.90
2019-01-12T12:17:37.210Z,2.53
2019-01-12T12:20:07.073Z,3.60
2019-01-12T12:22:35.534Z,2.93
2019-01-12T12:25:04.637Z,2.30
2019-01-12T12:27:33.100Z,1.90
2019-01-12T12:30:01.588Z,2.83
2019-01-12T12:32:30.017Z,2.73
2019-01-12T12:34:58.479Z,2.80
2019-01-12T12:37:27.157Z,3.00
2019-01-12T12:39:55.591Z,3.43
2019-01-12T12:42:24.033Z,3.27
2019-01-12T12:44:52.427Z,2.90
2019-01-12T12:47:20.883Z,3.47
2019-01-12T12:49:49.242Z,2.47
2019-01-12T12:52:17.638Z,1.70
2019-01-12T12:54:48.403Z,1.87
2019-01-12T12:57:16.794Z,2.17
2019-01-12T12:59:45.176Z,1.93
2019-01-12T13:02:13.658Z,2.13
2019-01-12T13:04:45.394Z,2.33
2019-01-12T13:07:13.875Z,1.60
2019-01-12T13:09:42.365Z,1.70
2019-01-12T13:12:10.842Z,2.00
2019-01-12T13:14:39.321Z,1.87
2019-01-12T13:17:08.067Z,1.63
2019-01-12T13:19:36.508Z,1.43
2019-01-12T13:22:05.017Z,1.60
2019-01-12T13:24:33.717Z,1.73
2019-01-12T13:27:02.217Z,1.27
2019-01-12T13:29:30.703Z,1.50
2019-01-12T13:31:59.092Z,1.20
2019-01-12T13:34:27.483Z,1.40
2019-01-12T13:36:55.958Z,1.17
2019-01-12T13:39:24.439Z,0.90
2019-01-12T13:41:52.929Z,1.30
2019-01-12T13:44:21.404Z,1.40
2019-01-12T13:46:50.360Z,1.00
2019-01-12T13:49:19.016Z,0.90
2019-01-12T13:51:47.434Z,0.60
2019-01-12T13:54:16.296Z,1.00
2019-01-12T13:56:44.750Z,0.70
2019-01-12T13:59:13.407Z,0.87
2019-01-12T14:01:41.882Z,0.80
2019-01-12T14:04:10.350Z,0.80
2019-01-12T14:06:38.836Z,0.60
2019-01-12T14:09:08.209Z,0.90
2019-01-12T14:11:36.631Z,0.57
2019-01-12T14:14:05.096Z,0.73
2019-01-12T14:16:33.853Z,0.80
2019-01-12T14:19:02.517Z,1.13
2019-01-12T14:21:31.049Z,0.77
2019-01-12T14:23:59.625Z,0.90
2019-01-12T14:26:28.101Z,1.30
2019-01-12T14:28:57.800Z,1.23
2019-01-12T14:31:26.370Z,1.70
2019-01-12T14:33:55.363Z,1.70
2019-01-12T14:36:24.131Z,1.30
2019-01-12T14:38:52.968Z,1.50
2019-01-12T14:41:24.982Z,1.43
2019-01-12T14:43:54.021Z,1.70
2019-01-12T14:46:22.519Z,1.40
2019-01-12T14:48:51.069Z,1.77
2019-01-12T14:51:19.780Z,1.57
2019-01-12T14:53:48.743Z,2.10
2019-01-12T14:56:17.380Z,2.57
2019-01-12T14:58:46.389Z,2.33
2019-01-12T15:01:15.106Z,1.80
2019-01-12T15:03:44.057Z,2.00
2019-01-12T15:06:13.290Z,2.00
2019-01-12T15:08:41.883Z,4.00
2019-01-12T15:11:10.364Z,2.37
2019-01-12T15:13:39.082Z,2.63
2019-01-12T15:16:08.004Z,3.00
2019-01-12T15:18:37.261Z,1.97
2019-01-12T15:21:05.908Z,1.77
2019-01-12T15:23:34.908Z,1.47
2019-01-12T15:26:03.534Z,1.50
2019-01-12T15:28:31.914Z,1.90
2019-01-12T15:31:00.892Z,1.80
2019-01-12T15:33:29.487Z,1.60
2019-01-12T15:35:58.431Z,2.47
2019-01-12T15:38:27.066Z,1.40
2019-01-12T15:40:55.770Z,0.83
2019-01-12T15:43:24.674Z,1.13
2019-01-12T15:45:53.097Z,1.50
2019-01-12T15:48:21.551Z,1.00
2019-01-12T15:50:50.414Z,1.50
2019-01-12T15:53:19.217Z,1.67
2019-01-12T15:55:47.618Z,1.33
2019-01-12T15:58:16.518Z,1.63
2019-01-12T16:00:45.550Z,2.30
2019-01-12T16:03:14.212Z,2.40
2019-01-12T16:05:42.911Z,2.13
2019-01-12T16:08:14.408Z,2.27
2019-01-12T16:10:42.964Z,2.30
2019-01-12T16:13:14.505Z,2.67
2019-01-12T16:15:43.341Z,1.90
2019-01-12T16:18:12.066Z,2.70
2019-01-12T16:20:43.474Z,2.87
2019-01-12T16:23:18.074Z,2.93
2019-01-12T16:25:49.871Z,2.40
2019-01-12T16:28:23.315Z,1.90
2019-01-12T16:30:52.152Z,1.90
2019-01-12T16:33:20.586Z,2.00
2019-01-12T16:35:49.127Z,2.23
2019-01-12T16:38:17.640Z,1.43
2019-01-12T16:40:47.468Z,1.63
2019-01-12T16:43:20.587Z,1.70
2019-01-12T16:45:59.169Z,2.00
2019-01-12T16:48:27.743Z,2.10
2019-01-12T16:50:57.530Z,1.17
2019-01-12T16:53:28.819Z,1.80
2019-01-12T16:55:57.397Z,5.30
2019-01-12T16:58:30.376Z,1.77
2019-01-12T17:00:56.231Z,3.60
2019-01-12T17:03:24.725Z,1.87
2019-01-12T17:05:54.361Z,2.57
2019-01-12T17:08:25.208Z,3.93
2019-01-12T17:10:53.642Z,2.83
2019-01-12T17:13:25.102Z,2.80
2019-01-12T17:15:53.540Z,2.47
2019-01-12T17:18:21.984Z,2.60
2019-01-12T17:20:50.486Z,1.70
2019-01-12T17:23:18.930Z,1.50
2019-01-12T17:25:48.565Z,1.37
2019-01-12T17:28:16.967Z,1.73
2019-01-12T17:30:47.884Z,1.27
2019-01-12T17:33:16.505Z,1.20
2019-01-12T17:35:45.044Z,1.80
2019-01-12T17:38:13.624Z,2.83
2019-01-12T17:40:42.239Z,3.73
2019-01-12T17:43:10.636Z,1.87
2019-01-12T17:45:39.112Z,1.00
2019-01-12T17:48:07.526Z,2.30
2019-01-12T17:50:35.943Z,2.10
2019-01-12T17:53:04.416Z,2.40
2019-01-12T17:55:32.791Z,2.17
2019-01-12T17:58:02.675Z,2.03
2019-01-12T18:00:56.261Z,2.87
2019-01-12T18:03:26.411Z,3.57
2019-01-12T18:05:54.947Z,2.40
2019-01-12T18:08:26.703Z,3.40
2019-01-12T18:11:16.784Z,2.20
2019-01-12T18:13:45.279Z,3.83
2019-01-12T18:16:13.773Z,1.70
2019-01-12T18:18:43.899Z,2.97
2019-01-12T18:21:13.599Z,3.30
2019-01-12T18:23:52.468Z,3.30
2019-01-12T18:26:20.929Z,2.20
2019-01-12T18:28:51.637Z,2.80
2019-01-12T18:31:22.758Z,2.23
2019-01-12T18:33:52.521Z,2.33
2019-01-12T18:36:24.017Z,2.60
2019-01-12T18:38:56.760Z,3.17
2019-01-12T18:41:27.720Z,3.60
2019-01-12T18:43:56.264Z,2.83
2019-01-12T18:46:24.796Z,2.17
2019-01-12T18:48:53.383Z,3.43
2019-01-12T18:51:21.800Z,1.77
2019-01-12T18:53:51.700Z,4.70
2019-01-12T18:56:20.105Z,2.57
2019-01-12T18:58:51.246Z,2.67
2019-01-12T19:01:19.775Z,1.90
2019-01-12T19:03:48.302Z,2.93
2019-01-12T19:06:16.723Z,2.30
2019-01-12T19:08:45.237Z,2.73
2019-01-12T19:11:13.654Z,2.70
2019-01-12T19:13:43.431Z,3.37
2019-01-12T19:16:11.864Z,2.30
2019-01-12T19:18:40.346Z,2.07
2019-01-12T19:21:09.108Z,2.93
2019-01-12T19:23:39.197Z,3.20
2019-01-12T19:26:10.066Z,4.03
2019-01-12T19:28:38.415Z,3.97
2019-01-12T19:31:07.221Z,3.47
2019-01-12T19:33:35.695Z,2.47
2019-01-12T19:36:04.166Z,3.07
2019-01-12T19:38:32.718Z,8.90
2019-01-12T19:41:02.447Z,5.23
2019-01-12T19:43:31.040Z,3.67
2019-01-12T19:45:59.631Z,2.60
2019-01-12T19:48:30.526Z,3.37
2019-01-12T19:50:58.789Z,2.60
2019-01-12T19:53:27.461Z,2.20
2019-01-12T19:55:59.330Z,2.83
2019-01-12T19:58:27.777Z,2.00
2019-01-12T20:01:00.464Z,5.13
2019-01-12T20:03:30.333Z,2.20
2019-01-12T20:05:58.922Z,3.03
2019-01-12T20:08:30.695Z,3.40
2019-01-12T20:10:57.939Z,3.20
2019-01-12T20:13:28.764Z,2.60
2019-01-12T20:15:57.347Z,2.50
2019-01-12T20:18:28.191Z,1.80
2019-01-12T20:20:56.839Z,2.30
2019-01-12T20:23:25.367Z,1.90
2019-01-12T20:25:53.884Z,2.37
2019-01-12T20:28:22.904Z,2.57
2019-01-12T20:31:00.993Z,2.03
2019-01-12T20:33:37.055Z,2.00
2019-01-12T20:36:16.294Z,1.50
2019-01-12T20:38:58.656Z,2.60
2019-01-12T20:41:55.372Z,2.20
2019-01-12T20:44:44.712Z,1.77
2019-01-12T20:47:21.614Z,1.57
2019-01-12T20:49:58.782Z,1.67
2019-01-12T20:52:55.270Z,1.90
2019-01-12T20:55:37.984Z,1.77
2019-01-12T20:58:42.872Z,4.50
2019-01-12T21:01:32.343Z,2.13
2019-01-12T21:04:22.125Z,2.33
2019-01-12T21:07:01.976Z,3.67
2019-01-12T21:09:47.351Z,1.67
2019-01-12T21:12:31.284Z,1.50
2019-01-12T21:15:00.815Z,6.17
2019-01-12T21:17:30.477Z,11.53
2019-01-12T21:19:59.074Z,5.03
2019-01-12T21:22:27.646Z,1.47
2019-01-12T21:24:56.227Z,2.43
2019-01-12T21:27:27.943Z,1.20
2019-01-12T21:29:56.456Z,1.10
2019-01-12T21:32:26.199Z,1.57
2019-01-12T21:34:54.832Z,0.97
2019-01-12T21:37:23.413Z,1.40
2019-01-12T21:39:51.876Z,1.20
2019-01-12T21:42:20.324Z,1.27
2019-01-12T21:44:51.865Z,1.63
2019-01-12T21:47:20.300Z,1.00
2019-01-12T21:49:48.908Z,0.77
2019-01-12T21:52:17.306Z,0.83
2019-01-12T21:54:45.761Z,0.80
2019-01-12T21:57:14.189Z,0.93
2019-01-12T21:59:42.949Z,0.93
2019-01-12T22:02:11.727Z,1.60
2019-01-12T22:04:40.178Z,1.50
2019-01-12T22:07:08.632Z,1.43
2019-01-12T22:09:37.122Z,1.20
2019-01-12T22:12:05.591Z,1.20
2019-01-12T22:14:34.084Z,0.97
2019-01-12T22:17:02.610Z,1.27
2019-01-12T22:19:31.114Z,1.00
2019-01-12T22:21:59.567Z,0.70
2019-01-12T22:24:28.009Z,0.43
2019-01-12T22:26:56.467Z,0.67
2019-01-12T22:29:24.945Z,0.90
2019-01-12T22:31:54.973Z,0.70
2019-01-12T22:34:23.401Z,0.50
2019-01-12T22:36:54.730Z,0.67
2019-01-12T22:39:23.712Z,0.47
2019-01-12T22:41:52.220Z,0.53
2019-01-12T22:44:20.623Z,0.97
2019-01-12T22:46:49.049Z,0.73
2019-01-12T22:49:17.518Z,0.70
2019-01-12T22:51:45.985Z,0.60
2019-01-12T22:54:16.551Z,0.93
2019-01-12T22:56:44.940Z,0.70
2019-01-12T22:59:13.334Z,0.57
2019-01-12T23:01:46.313Z,0.90
2019-01-12T23:04:15.836Z,0.90
2019-01-12T23:06:44.468Z,0.77
2019-01-12T23:09:13.047Z,0.70
2019-01-12T23:11:41.590Z,0.80
2019-01-12T23:14:10.067Z,0.80
2019-01-12T23:16:38.540Z,0.63
2019-01-12T23:19:07.038Z,0.70
2019-01-12T23:21:35.530Z,1.30
2019-01-12T23:24:04.585Z,0.90
2019-01-12T23:26:33.083Z,1.67
2019-01-12T23:29:01.478Z,0.63
2019-01-12T23:31:31.511Z,2.37
2019-01-12T23:33:59.972Z,1.50
2019-01-12T23:36:28.448Z,1.23
2019-01-12T23:38:56.870Z,1.40
2019-01-12T23:41:25.329Z,1.30
2019-01-12T23:43:53.761Z,1.87
2019-01-12T23:46:22.285Z,2.20
2019-01-12T23:48:50.651Z,1.70
2019-01-12T23:51:19.113Z,1.43
2019-01-12T23:53:47.584Z,1.87
2019-01-12T23:56:15.990Z,1.90
2019-01-12T23:58:44.367Z,2.97
